Terminal Aerodrome Forecast
Issued by NWS

Home | Current Version | Previous Version | Text Only | Print | Product List | Glossary On
Versions: 1 2 3 4 5 6 7 8 9 10 11 12 13 14 15
000
FTUS44 KMAF 291723
TAFFST
TAF
KFST 291723Z 2918/3018 07009KT P6SM BKN024 BKN110
      TEMPO 2921/3001 6SM TSRA BKN040CB
     FM300100 04005KT P6SM BKN040 BKN120
      TEMPO 3001/3005 6SM TSRA BKN020CB
     FM300500 07005KT P6SM BKN040
      TEMPO 3005/3009 6SM TSRA BR BKN020CB
     FM300900 05006KT P6SM BKN040
      TEMPO 3009/3012 6SM TSRA BKN020CB=

USA.gov is the U.S. government's official web portal to all federal, state and local government web resources and services.